Time;durP1;ratioP1;P1;durP2;ratioP2;P2;SDS_P1;SDS_P2;PMS_P1;PMS_P2;Temp;Humidity;BMP_temperature;BMP_pressure;BME280_temperature;BME280_humidity;BME280_pressure;Samples;Min_cycle;Max_cycle;Signal;HPM_P1;HPM_P2
2024/03/31 00:00:45;;;;;;;;;;;9.20;73.30;;;;;;20914291;28;19913;-55
2024/03/31 00:10:46;;;;;;;;;;;9.30;73.30;;;;;;20914969;28;20428;-54
2024/03/31 00:20:54;;;;;;;;;;;9.40;73.50;;;;;;20914580;28;19909;-56
2024/03/31 00:30:55;;;;;;;;;;;9.40;73.40;;;;;;20914249;28;20313;-56
2024/03/31 00:40:56;;;;;;;;;;;9.40;73.70;;;;;;20912526;28;19915;-54
2024/03/31 00:50:57;;;;;;;;;;;9.20;73.80;;;;;;20928749;28;19921;-55
2024/03/31 01:00:58;;;;;;;;;;;9.20;73.80;;;;;;20929522;28;19913;-55
2024/03/31 01:11:01;;;;;;;;;;;9.20;73.90;;;;;;20927445;28;20110;-55
2024/03/31 01:21:02;;;;;;;;;;;9.30;74.00;;;;;;20926660;28;19909;-56
2024/03/31 01:31:03;;;;;;;;;;;9.20;73.70;;;;;;20925671;28;19999;-55
2024/03/31 01:41:04;;;;;;;;;;;9.20;73.80;;;;;;20924859;28;19909;-57
2024/03/31 01:51:05;;;;;;;;;;;9.10;74.30;;;;;;20923918;28;19943;-56
2024/03/31 02:01:06;;;;;;;;;;;9.10;74.20;;;;;;20924593;28;20256;-55
2024/03/31 02:11:08;;;;;;;;;;;9.10;74.20;;;;;;20922759;28;19917;-55
2024/03/31 02:21:09;;;;;;;;;;;9.10;74.20;;;;;;20921443;28;19908;-55
2024/03/31 02:31:10;;;;;;;;;;;9.00;74.50;;;;;;20921386;28;19923;-55
2024/03/31 02:41:12;;;;;;;;;;;9.10;75.00;;;;;;20920527;28;19935;-56
2024/03/31 02:51:13;;;;;;;;;;;9.10;74.80;;;;;;20921830;28;19927;-55
2024/03/31 03:01:15;;;;;;;;;;;9.00;74.40;;;;;;20920165;28;20019;-57
2024/03/31 03:11:17;;;;;;;;;;;9.10;74.70;;;;;;20918620;28;19917;-56
2024/03/31 03:21:19;;;;;;;;;;;9.10;74.80;;;;;;20918406;28;20262;-55
2024/03/31 03:31:20;;;;;;;;;;;9.10;75.00;;;;;;20917733;28;19917;-56
2024/03/31 03:41:22;;;;;;;;;;;9.00;75.20;;;;;;20916959;28;19917;-56
2024/03/31 03:51:23;;;;;;;;;;;9.00;75.20;;;;;;20914856;28;20024;-55
2024/03/31 04:01:24;;;;;;;;;;;9.00;75.60;;;;;;20914317;28;19980;-55
2024/03/31 04:11:26;;;;;;;;;;;8.90;75.90;;;;;;20915187;28;19924;-55
2024/03/31 04:21:27;;;;;;;;;;;8.80;76.00;;;;;;20913533;28;19908;-54
2024/03/31 04:31:28;;;;;;;;;;;9.00;76.50;;;;;;20913982;28;20308;-55
2024/03/31 04:41:29;;;;;;;;;;;8.80;76.70;;;;;;20913577;28;19908;-56
2024/03/31 04:51:30;;;;;;;;;;;9.00;77.10;;;;;;20912138;28;19921;-55
2024/03/31 05:01:31;;;;;;;;;;;9.00;77.40;;;;;;20913195;28;19916;-56
2024/03/31 05:11:33;;;;;;;;;;;9.00;77.60;;;;;;20911844;28;20015;-55
2024/03/31 05:21:34;;;;;;;;;;;8.90;77.90;;;;;;20912513;28;20022;-55
2024/03/31 05:31:35;;;;;;;;;;;9.00;78.30;;;;;;20918644;28;19916;-55
2024/03/31 05:41:36;;;;;;;;;;;9.00;78.30;;;;;;20926201;28;19916;-55
2024/03/31 05:51:37;;;;;;;;;;;8.80;78.30;;;;;;20924269;28;20012;-55
2024/03/31 06:01:38;;;;;;;;;;;8.90;78.60;;;;;;20924765;28;19983;-56
2024/03/31 06:11:42;;;;;;;;;;;9.00;78.70;;;;;;20924318;28;20000;-56
2024/03/31 06:21:43;;;;;;;;;;;9.00;78.60;;;;;;20922150;28;19916;-55
2024/03/31 06:31:44;;;;;;;;;;;8.90;78.10;;;;;;20922661;28;20324;-55
2024/03/31 06:41:45;;;;;;;;;;;9.00;76.90;;;;;;20919325;28;19919;-55
2024/03/31 06:51:46;;;;;;;;;;;9.00;77.40;;;;;;20919990;28;19928;-56
2024/03/31 07:01:48;;;;;;;;;;;9.00;77.30;;;;;;20920514;28;20313;-55
2024/03/31 07:11:49;;;;;;;;;;;8.90;74.90;;;;;;20919310;28;20015;-56
2024/03/31 07:21:51;;;;;;;;;;;8.80;75.20;;;;;;20917599;28;19909;-55
2024/03/31 07:31:52;;;;;;;;;;;8.80;74.40;;;;;;20917619;28;19920;-55
2024/03/31 07:41:54;;;;;;;;;;;8.80;74.90;;;;;;20914840;28;19966;-56
2024/03/31 07:51:55;;;;;;;;;;;8.90;75.00;;;;;;20915864;28;19920;-55
2024/03/31 08:01:56;;;;;;;;;;;8.80;75.70;;;;;;20913579;28;19913;-55
2024/03/31 08:11:57;;;;;;;;;;;8.80;75.50;;;;;;20912511;28;19924;-56
2024/03/31 08:21:58;;;;;;;;;;;8.90;75.90;;;;;;20912475;28;19909;-56
2024/03/31 08:31:59;;;;;;;;;;;9.10;76.20;;;;;;20912394;28;20391;-55
2024/03/31 08:42:04;;;;;;;;;;;9.50;75.10;;;;;;20911346;28;20293;-56
2024/03/31 08:52:07;;;;;;;;;;;9.80;73.00;;;;;;20912610;28;19921;-54
2024/03/31 09:02:13;;;;;;;;;;;9.90;71.10;;;;;;20911476;28;19951;-56
2024/03/31 09:12:14;;;;;;;;;;;9.70;73.20;;;;;;20927238;28;19917;-57
2024/03/31 09:22:17;;;;;;;;;;;9.50;74.30;;;;;;20926236;28;19909;-56
2024/03/31 09:32:18;;;;;;;;;;;9.20;76.10;;;;;;20926911;28;20405;-57
2024/03/31 09:42:20;;;;;;;;;;;9.30;76.10;;;;;;20924669;28;19928;-56
2024/03/31 09:52:23;;;;;;;;;;;9.40;77.10;;;;;;20923939;28;19924;-56
2024/03/31 10:02:26;;;;;;;;;;;9.60;77.60;;;;;;20924414;28;19912;-56
2024/03/31 10:12:28;;;;;;;;;;;9.50;76.30;;;;;;20922622;28;19948;-56
2024/03/31 10:22:29;;;;;;;;;;;9.30;78.20;;;;;;20921990;28;19913;-56
2024/03/31 10:32:30;;;;;;;;;;;9.70;77.50;;;;;;20922824;28;19917;-56
2024/03/31 10:42:32;;;;;;;;;;;10.00;76.10;;;;;;20921209;28;19924;-56
2024/03/31 10:52:35;;;;;;;;;;;9.80;74.70;;;;;;20919131;28;19955;-57
2024/03/31 11:02:39;;;;;;;;;;;10.10;74.80;;;;;;20919885;28;19940;-56
2024/03/31 11:12:44;;;;;;;;;;;10.30;73.50;;;;;;20918016;28;20015;-56
2024/03/31 11:22:46;;;;;;;;;;;10.40;73.40;;;;;;20916901;28;20377;-57
2024/03/31 11:32:48;;;;;;;;;;;10.40;74.00;;;;;;20916935;28;20320;-55
2024/03/31 11:42:49;;;;;;;;;;;10.60;73.80;;;;;;20915021;28;19920;-56
2024/03/31 11:52:50;;;;;;;;;;;10.70;71.80;;;;;;20914490;28;19982;-57
2024/03/31 12:02:51;;;;;;;;;;;10.80;71.30;;;;;;20913657;28;19912;-55
2024/03/31 12:12:53;;;;;;;;;;;11.00;70.70;;;;;;20913598;28;20008;-56
2024/03/31 12:22:54;;;;;;;;;;;11.20;70.00;;;;;;20914303;28;20281;-57
2024/03/31 12:32:56;;;;;;;;;;;11.30;67.70;;;;;;20911871;28;19917;-56
2024/03/31 12:42:58;;;;;;;;;;;11.50;67.50;;;;;;20921577;28;19944;-57
2024/03/31 12:53:09;;;;;;;;;;;11.60;64.70;;;;;;20929604;28;19921;-56
2024/03/31 13:03:11;;;;;;;;;;;11.60;65.30;;;;;;20928055;28;19909;-56
2024/03/31 13:13:16;;;;;;;;;;;11.90;62.60;;;;;;20927229;28;19924;-58
2024/03/31 13:23:20;;;;;;;;;;;11.90;61.00;;;;;;20926737;28;19994;-57
2024/03/31 13:33:21;;;;;;;;;;;12.00;62.10;;;;;;20925483;28;19923;-56
2024/03/31 13:43:23;;;;;;;;;;;12.20;61.60;;;;;;20925291;28;20389;-56
2024/03/31 13:53:24;;;;;;;;;;;12.40;59.90;;;;;;20924722;28;20012;-56
2024/03/31 14:03:25;;;;;;;;;;;12.60;59.20;;;;;;20924169;28;19916;-56
2024/03/31 14:13:27;;;;;;;;;;;12.90;59.50;;;;;;20921935;28;19917;-55
2024/03/31 14:23:29;;;;;;;;;;;12.60;59.60;;;;;;20921798;28;19909;-56
2024/03/31 14:33:30;;;;;;;;;;;12.50;59.80;;;;;;20920749;28;20008;-56
2024/03/31 14:43:31;;;;;;;;;;;12.80;58.90;;;;;;20920099;28;20015;-56
2024/03/31 14:53:32;;;;;;;;;;;12.60;59.70;;;;;;20920380;28;20289;-56
2024/03/31 15:03:34;;;;;;;;;;;12.90;58.00;;;;;;20919032;28;19916;-56
2024/03/31 15:13:35;;;;;;;;;;;12.90;56.90;;;;;;20918726;28;19916;-56
2024/03/31 15:23:37;;;;;;;;;;;13.10;53.60;;;;;;20917007;28;19916;-57
2024/03/31 15:33:39;;;;;;;;;;;13.00;54.80;;;;;;20915939;28;19916;-56
2024/03/31 15:43:41;;;;;;;;;;;12.90;54.70;;;;;;20916573;28;20281;-57
2024/03/31 15:53:42;;;;;;;;;;;12.70;55.20;;;;;;20914678;28;19929;-56
2024/03/31 16:03:44;;;;;;;;;;;12.10;56.20;;;;;;20915777;28;20402;-56
2024/03/31 16:13:52;;;;;;;;;;;11.60;58.40;;;;;;20913503;28;20283;-57
2024/03/31 16:23:54;;;;;;;;;;;11.50;60.20;;;;;;20912762;28;19913;-57
2024/03/31 16:33:56;;;;;;;;;;;11.70;57.90;;;;;;20912686;28;19917;-56
2024/03/31 16:43:57;;;;;;;;;;;11.80;57.90;;;;;;20913081;28;20393;-56
2024/03/31 16:53:59;;;;;;;;;;;12.00;56.80;;;;;;20911913;28;19924;-57
2024/03/31 17:04:00;;;;;;;;;;;11.70;56.10;;;;;;20913013;28;19971;-56
2024/03/31 17:14:01;;;;;;;;;;;11.70;55.10;;;;;;20912663;28;19916;-57
2024/03/31 17:24:03;;;;;;;;;;;11.70;56.50;;;;;;20913595;28;19909;-58
2024/03/31 17:34:04;;;;;;;;;;;11.70;53.00;;;;;;20925762;28;19917;-57
2024/03/31 17:44:06;;;;;;;;;;;11.40;53.60;;;;;;20924672;28;19925;-56
2024/03/31 17:54:07;;;;;;;;;;;11.50;54.10;;;;;;20925536;28;19921;-58
2024/03/31 18:04:08;;;;;;;;;;;11.30;54.40;;;;;;20923416;28;20015;-58
2024/03/31 18:14:09;;;;;;;;;;;11.40;54.40;;;;;;20923718;28;19916;-58
2024/03/31 18:24:10;;;;;;;;;;;11.30;55.20;;;;;;20921790;28;19908;-57
2024/03/31 18:34:13;;;;;;;;;;;11.30;55.20;;;;;;20922424;28;19937;-57
2024/03/31 18:44:14;;;;;;;;;;;11.20;56.30;;;;;;20919060;28;20337;-56
2024/03/31 18:54:15;;;;;;;;;;;11.00;57.50;;;;;;20920037;28;19957;-56
2024/03/31 19:04:16;;;;;;;;;;;11.00;58.70;;;;;;20917369;28;19916;-56
2024/03/31 19:14:18;;;;;;;;;;;10.80;59.50;;;;;;20917171;28;19916;-57
2024/03/31 19:24:19;;;;;;;;;;;10.80;58.70;;;;;;20918398;28;20366;-57
2024/03/31 19:34:20;;;;;;;;;;;10.70;58.40;;;;;;20916395;28;20298;-57
2024/03/31 19:44:21;;;;;;;;;;;10.70;58.90;;;;;;20916194;28;19928;-56
2024/03/31 19:54:27;;;;;;;;;;;10.50;60.10;;;;;;20914461;28;19920;-56
2024/03/31 20:04:28;;;;;;;;;;;10.40;61.10;;;;;;20915282;28;19909;-56
2024/03/31 20:14:30;;;;;;;;;;;10.30;64.00;;;;;;20914474;28;19961;-57
2024/03/31 20:24:31;;;;;;;;;;;10.20;65.00;;;;;;20913108;28;19963;-57
2024/03/31 20:34:32;;;;;;;;;;;10.20;65.30;;;;;;20914046;28;20473;-57
2024/03/31 20:44:33;;;;;;;;;;;10.20;64.90;;;;;;20912052;28;19927;-57
2024/03/31 20:54:34;;;;;;;;;;;10.10;65.00;;;;;;20910156;28;19921;-58
2024/03/31 21:04:35;;;;;;;;;;;10.00;65.30;;;;;;20922154;28;19975;-57
2024/03/31 21:14:37;;;;;;;;;;;10.00;65.00;;;;;;20926527;28;19916;-57
2024/03/31 21:24:38;;;;;;;;;;;10.00;65.20;;;;;;20927469;28;19909;-58
2024/03/31 21:34:39;;;;;;;;;;;10.00;65.40;;;;;;20926977;28;19963;-56
2024/03/31 21:44:40;;;;;;;;;;;9.80;65.40;;;;;;20925334;28;19920;-57
2024/03/31 21:54:41;;;;;;;;;;;9.70;65.30;;;;;;20924723;28;20301;-56
2024/03/31 22:04:43;;;;;;;;;;;9.80;64.30;;;;;;20923720;28;19913;-58
2024/03/31 22:14:44;;;;;;;;;;;9.70;64.40;;;;;;20921251;28;19924;-57
2024/03/31 22:24:45;;;;;;;;;;;9.60;64.40;;;;;;20921320;28;19915;-56
2024/03/31 22:34:46;;;;;;;;;;;9.60;65.30;;;;;;20921643;28;20382;-57
2024/03/31 22:44:47;;;;;;;;;;;9.50;65.30;;;;;;20920003;28;19924;-56
2024/03/31 22:54:49;;;;;;;;;;;9.40;65.40;;;;;;20920676;28;19927;-57
2024/03/31 23:04:50;;;;;;;;;;;9.20;66.00;;;;;;20920464;28;19909;-56
2024/03/31 23:14:51;;;;;;;;;;;9.10;67.20;;;;;;20918365;28;19963;-57
2024/03/31 23:24:52;;;;;;;;;;;9.10;67.80;;;;;;20917002;28;19909;-57
2024/03/31 23:34:53;;;;;;;;;;;9.00;68.50;;;;;;20916774;28;19927;-56
2024/03/31 23:44:54;;;;;;;;;;;9.00;68.50;;;;;;20916127;28;19935;-56
2024/03/31 23:54:55;;;;;;;;;;;8.80;68.70;;;;;;20915133;28;19921;-56
